Time;durP1;ratioP1;P1;durP2;ratioP2;P2;SDS_P1;SDS_P2;PMS_P1;PMS_P2;Temp;Humidity;BMP_temperature;BMP_pressure;BME280_temperature;BME280_humidity;BME280_pressure;Samples;Min_cycle;Max_cycle;Signal;HPM_P1;HPM_P2
2021/03/03 00:01:07;;;;;;;19.30;10.07;;;2.70;99.90;;;;;;5008077;28;20296;-82
2021/03/03 00:03:33;;;;;;;22.20;10.75;;;2.70;99.90;;;;;;5010949;28;20033;-82
2021/03/03 00:05:59;;;;;;;19.02;9.63;;;2.70;99.90;;;;;;5010784;28;20100;-82
2021/03/03 00:08:24;;;;;;;20.13;9.80;;;2.70;99.90;;;;;;5025722;28;20056;-81
2021/03/03 00:10:50;;;;;;;21.17;10.10;;;2.60;99.90;;;;;;5016668;28;20105;-82
2021/03/03 00:13:15;;;;;;;23.08;10.00;;;2.60;99.90;;;;;;5002847;28;20080;-82
2021/03/03 00:15:41;;;;;;;21.20;9.27;;;2.60;99.90;;;;;;5015035;28;20034;-81
2021/03/03 00:18:07;;;;;;;21.90;9.93;;;2.50;99.90;;;;;;5012024;28;20113;-81
2021/03/03 00:20:32;;;;;;;24.17;9.75;;;2.50;99.90;;;;;;5040790;28;20037;-82
2021/03/03 00:22:58;;;;;;;20.33;10.27;;;2.60;99.90;;;;;;5028731;28;20081;-82
2021/03/03 00:25:23;;;;;;;23.05;10.98;;;2.50;99.90;;;;;;5013993;28;20125;-82
2021/03/03 00:27:49;;;;;;;20.83;9.52;;;2.50;99.90;;;;;;5031254;28;20041;-81
2021/03/03 00:30:15;;;;;;;20.67;9.93;;;2.50;99.90;;;;;;5025085;28;20038;-82
2021/03/03 00:32:41;;;;;;;20.30;9.07;;;2.40;99.90;;;;;;5027589;28;20048;-82
2021/03/03 00:35:09;;;;;;;19.92;9.18;;;2.40;99.90;;;;;;5025404;28;20037;-81
2021/03/03 00:37:35;;;;;;;19.42;8.63;;;2.40;99.90;;;;;;5028227;28;20056;-82
2021/03/03 00:40:01;;;;;;;20.50;8.85;;;2.30;99.90;;;;;;5014515;28;20038;-81
2021/03/03 00:42:26;;;;;;;20.25;9.20;;;2.40;99.90;;;;;;5030665;28;20041;-81
2021/03/03 00:44:52;;;;;;;20.98;9.00;;;2.30;99.90;;;;;;5027717;28;20045;-81
2021/03/03 00:47:18;;;;;;;18.67;8.32;;;2.30;99.90;;;;;;5030971;28;20033;-82
2021/03/03 00:49:45;;;;;;;18.02;8.98;;;2.30;99.90;;;;;;5026500;28;20033;-81
2021/03/03 00:52:11;;;;;;;21.10;8.73;;;2.30;99.90;;;;;;5030840;28;20030;-81
2021/03/03 00:54:38;;;;;;;18.83;8.93;;;2.20;99.90;;;;;;5018919;28;20124;-82
2021/03/03 00:57:04;;;;;;;18.40;8.15;;;2.30;99.90;;;;;;5027244;28;20063;-81
2021/03/03 00:59:30;;;;;;;16.92;7.93;;;2.30;99.90;;;;;;5030476;28;20045;-81
2021/03/03 01:01:56;;;;;;;17.75;7.35;;;2.20;99.90;;;;;;5042668;28;20082;-81
2021/03/03 01:04:22;;;;;;;19.63;9.38;;;2.20;99.90;;;;;;5022224;28;20087;-82
2021/03/03 01:06:47;;;;;;;19.90;8.77;;;2.30;99.90;;;;;;5029144;28;20045;-82
2021/03/03 01:09:16;;;;;;;20.17;8.23;;;2.20;99.90;;;;;;5032720;28;20033;-81
2021/03/03 01:11:46;;;;;;;19.88;9.50;;;2.20;99.90;;;;;;5027067;28;20033;-82
2021/03/03 01:14:12;;;;;;;20.00;8.30;;;2.20;99.90;;;;;;5003073;28;20120;-82
2021/03/03 01:16:37;;;;;;;19.27;8.07;;;2.10;99.90;;;;;;5046553;28;20045;-81
2021/03/03 01:19:09;;;;;;;19.77;8.40;;;2.10;99.90;;;;;;5011723;28;20048;-81
2021/03/03 01:21:34;;;;;;;16.63;8.00;;;2.20;99.90;;;;;;5030909;28;20101;-81
2021/03/03 01:24:00;;;;;;;23.77;9.25;;;2.20;99.90;;;;;;5021053;28;20258;-81
2021/03/03 01:26:25;;;;;;;18.48;8.32;;;2.10;99.90;;;;;;5046234;28;20037;-81
2021/03/03 01:28:51;;;;;;;19.33;8.52;;;2.20;99.90;;;;;;5029874;28;20049;-81
2021/03/03 01:31:17;;;;;;;16.85;7.25;;;2.10;99.90;;;;;;5029507;28;20044;-81
2021/03/03 01:33:42;;;;;;;16.42;7.55;;;2.10;99.90;;;;;;5029740;28;20136;-81
2021/03/03 01:36:08;;;;;;;17.05;7.70;;;2.10;99.90;;;;;;5029287;28;20038;-81
2021/03/03 01:38:33;;;;;;;17.42;7.35;;;2.10;99.90;;;;;;5029714;28;20063;-82
2021/03/03 01:40:59;;;;;;;16.02;7.90;;;2.10;99.90;;;;;;5026947;28;20037;-81
2021/03/03 01:43:25;;;;;;;15.82;7.70;;;2.20;99.90;;;;;;5029579;28;20045;-81
2021/03/03 01:45:51;;;;;;;18.50;7.95;;;2.10;99.90;;;;;;5029310;28;20045;-81
2021/03/03 01:48:16;;;;;;;15.77;7.30;;;2.10;99.90;;;;;;5029406;28;20045;-82
2021/03/03 01:50:43;;;;;;;20.30;8.02;;;2.10;99.90;;;;;;5029488;28;20080;-81
2021/03/03 01:53:09;;;;;;;16.13;7.28;;;2.10;99.90;;;;;;5029071;28;20043;-81
2021/03/03 01:55:35;;;;;;;17.15;6.65;;;2.10;99.90;;;;;;5012918;28;20030;-81
2021/03/03 01:58:03;;;;;;;18.67;8.13;;;2.00;99.90;;;;;;5029362;28;20477;-82
2021/03/03 02:00:28;;;;;;;14.90;7.18;;;2.00;99.90;;;;;;5029288;28;20037;-81
2021/03/03 02:02:54;;;;;;;18.90;7.93;;;2.00;99.90;;;;;;5029194;28;20517;-81
2021/03/03 02:05:20;;;;;;;17.52;6.65;;;2.00;99.90;;;;;;5011637;28;20034;-82
2021/03/03 02:07:59;;;;;;;17.38;8.18;;;2.00;99.90;;;;;;5028834;28;20099;-82
2021/03/03 02:11:16;;;;;;;16.65;6.90;;;2.00;99.90;;;;;;5012617;28;20064;-81
2021/03/03 02:13:49;;;;;;;18.50;6.43;;;2.00;99.90;;;;;;4993664;28;20037;-81
2021/03/03 02:16:15;;;;;;;15.60;6.68;;;2.00;99.90;;;;;;5031443;28;20041;-81
2021/03/03 02:18:42;;;;;;;13.07;6.43;;;2.00;99.90;;;;;;5026164;28;20041;-81
2021/03/03 02:21:08;;;;;;;12.82;6.13;;;1.90;99.90;;;;;;5012135;28;20030;-81
2021/03/03 02:23:47;;;;;;;13.25;6.22;;;1.90;99.90;;;;;;5028649;28;20137;-81
2021/03/03 02:26:15;;;;;;;14.45;5.68;;;1.90;99.90;;;;;;5042930;28;20029;-82
2021/03/03 02:28:42;;;;;;;15.80;6.53;;;1.90;99.90;;;;;;5028946;28;20033;-81
2021/03/03 02:31:08;;;;;;;14.88;6.75;;;1.80;99.90;;;;;;5028382;28;20091;-82
2021/03/03 02:33:35;;;;;;;16.42;6.65;;;1.90;99.90;;;;;;5028772;28;20108;-81
2021/03/03 02:36:01;;;;;;;13.95;6.43;;;1.90;99.90;;;;;;5024696;28;20125;-81
2021/03/03 02:38:28;;;;;;;15.93;7.22;;;1.90;99.90;;;;;;5028009;28;20123;-81
2021/03/03 02:40:55;;;;;;;15.10;6.10;;;2.00;99.90;;;;;;5028317;28;20040;-81
2021/03/03 02:43:21;;;;;;;14.13;6.32;;;1.90;99.90;;;;;;5028091;28;20440;-81
2021/03/03 02:45:48;;;;;;;15.10;6.57;;;1.80;99.90;;;;;;5033633;28;20042;-81
2021/03/03 02:48:15;;;;;;;14.05;6.30;;;1.90;99.90;;;;;;5011902;28;20034;-81
2021/03/03 02:50:41;;;;;;;14.30;6.05;;;1.80;99.90;;;;;;5027915;28;20033;-82
2021/03/03 02:53:07;;;;;;;16.70;6.22;;;1.70;99.90;;;;;;5030841;28;20041;-81
2021/03/03 02:55:33;;;;;;;13.82;5.82;;;1.80;99.90;;;;;;5012334;28;20030;-81
2021/03/03 02:58:00;;;;;;;14.55;6.13;;;1.80;99.90;;;;;;5028339;28;20052;-81
2021/03/03 03:00:32;;;;;;;15.88;6.35;;;1.80;99.90;;;;;;5036356;28;20048;-81
2021/03/03 03:03:15;;;;;;;15.07;6.32;;;1.80;99.90;;;;;;5025885;28;20051;-81
2021/03/03 03:06:05;;;;;;;15.10;6.53;;;1.70;99.90;;;;;;5025004;28;20033;-82
2021/03/03 03:08:32;;;;;;;13.38;5.75;;;1.70;99.90;;;;;;5036792;28;20137;-81
2021/03/03 03:11:07;;;;;;;13.07;6.00;;;1.70;99.90;;;;;;4987859;28;20069;-82
2021/03/03 03:13:35;;;;;;;12.68;6.13;;;1.70;99.90;;;;;;5020449;28;20048;-81
2021/03/03 03:16:03;;;;;;;13.93;5.82;;;1.80;99.90;;;;;;5016522;28;20038;-81
2021/03/03 03:18:34;;;;;;;13.63;5.18;;;1.70;99.90;;;;;;5020353;28;20085;-81
2021/03/03 03:21:01;;;;;;;16.55;6.70;;;1.70;99.90;;;;;;5003733;28;20035;-81
2021/03/03 03:23:27;;;;;;;17.75;6.15;;;1.70;99.90;;;;;;5003646;28;20110;-81
2021/03/03 03:25:55;;;;;;;17.17;6.68;;;1.70;99.90;;;;;;5020279;28;20101;-81
2021/03/03 03:28:21;;;;;;;17.10;6.80;;;1.70;99.90;;;;;;5020210;28;20106;-81
2021/03/03 03:30:48;;;;;;;15.88;7.38;;;1.70;99.90;;;;;;4971551;28;20038;-81
2021/03/03 03:33:15;;;;;;;17.15;7.07;;;1.70;99.90;;;;;;5020025;28;20058;-81
2021/03/03 03:35:41;;;;;;;17.67;7.13;;;1.70;99.90;;;;;;4990097;28;20041;-81
2021/03/03 03:38:07;;;;;;;27.17;8.23;;;1.60;99.90;;;;;;5003372;28;20054;-81
2021/03/03 03:40:32;;;;;;;19.77;8.63;;;1.60;99.90;;;;;;4987475;28;20046;-81
2021/03/03 03:42:59;;;;;;;22.70;9.50;;;1.60;99.90;;;;;;4987299;28;20042;-81
2021/03/03 03:45:26;;;;;;;27.85;12.70;;;1.80;99.90;;;;;;5016249;28;20064;-81
2021/03/03 03:47:53;;;;;;;24.92;11.15;;;1.90;99.90;;;;;;5027487;28;20068;-81
2021/03/03 03:50:21;;;;;;;26.30;11.05;;;1.70;99.90;;;;;;5027634;28;20041;-81
2021/03/03 03:52:54;;;;;;;27.52;11.13;;;1.80;99.90;;;;;;5027143;28;20105;-81
2021/03/03 03:55:20;;;;;;;24.85;10.90;;;2.10;99.90;;;;;;5043931;28;20030;-81
2021/03/03 03:57:50;;;;;;;26.48;11.43;;;1.90;99.90;;;;;;5027321;28;20463;-81
2021/03/03 04:00:18;;;;;;;20.05;9.18;;;2.10;99.90;;;;;;5027364;28;20068;-81
2021/03/03 04:02:44;;;;;;;19.88;9.10;;;1.90;99.90;;;;;;5027052;28;20390;-81
2021/03/03 04:05:11;;;;;;;22.40;8.55;;;1.80;99.90;;;;;;5027308;28;20037;-81
2021/03/03 04:07:37;;;;;;;19.10;8.70;;;1.80;99.90;;;;;;5026775;28;20113;-82
2021/03/03 04:10:03;;;;;;;14.85;6.18;;;1.80;99.90;;;;;;5010841;28;20033;-81
2021/03/03 04:12:29;;;;;;;13.70;7.25;;;1.70;99.90;;;;;;5026854;28;20044;-81
2021/03/03 04:14:54;;;;;;;16.17;7.07;;;1.70;99.90;;;;;;5027182;28;20033;-81
2021/03/03 04:17:20;;;;;;;14.40;6.43;;;1.60;99.90;;;;;;5026946;28;20045;-81
2021/03/03 04:19:46;;;;;;;17.25;6.50;;;1.60;99.90;;;;;;5027254;28;20061;-81
2021/03/03 04:22:12;;;;;;;15.35;6.60;;;1.70;99.90;;;;;;5027073;28;20044;-81
2021/03/03 04:24:37;;;;;;;14.73;6.68;;;1.60;99.90;;;;;;5026689;28;20088;-81
2021/03/03 04:27:03;;;;;;;15.65;6.32;;;1.60;99.90;;;;;;5010610;28;20469;-81
2021/03/03 04:29:29;;;;;;;19.75;7.22;;;1.70;99.90;;;;;;5026987;28;20053;-82
2021/03/03 04:31:54;;;;;;;16.50;7.20;;;1.80;99.90;;;;;;5010459;28;20074;-81
2021/03/03 04:34:20;;;;;;;16.52;6.60;;;1.80;99.90;;;;;;5026857;28;20096;-81
2021/03/03 04:36:45;;;;;;;13.68;6.35;;;1.70;99.90;;;;;;5026768;28;20037;-81
2021/03/03 04:39:11;;;;;;;15.85;7.18;;;1.70;99.90;;;;;;5026915;28;20041;-81
2021/03/03 04:41:37;;;;;;;13.02;6.13;;;1.70;99.90;;;;;;5010252;28;20383;-81
2021/03/03 04:44:02;;;;;;;13.73;6.00;;;1.70;99.90;;;;;;5010280;28;20053;-82
2021/03/03 04:46:28;;;;;;;14.88;6.15;;;1.70;99.90;;;;;;5026804;28;20041;-82
2021/03/03 04:48:54;;;;;;;13.50;6.35;;;1.80;99.90;;;;;;5026690;28;20172;-81
2021/03/03 04:51:19;;;;;;;14.75;7.05;;;1.80;99.90;;;;;;5026636;28;20037;-81
2021/03/03 04:53:45;;;;;;;13.85;6.35;;;1.70;99.90;;;;;;5043300;28;20044;-81
2021/03/03 04:56:10;;;;;;;14.85;6.63;;;1.70;99.90;;;;;;5029410;28;20041;-82
2021/03/03 04:58:36;;;;;;;13.80;6.53;;;1.80;99.90;;;;;;5029217;28;20069;-81
2021/03/03 05:01:02;;;;;;;14.30;6.47;;;1.70;99.90;;;;;;5013001;28;20044;-81
2021/03/03 05:03:27;;;;;;;12.70;5.70;;;1.80;99.90;;;;;;5032787;28;20041;-81
2021/03/03 05:05:53;;;;;;;15.40;7.05;;;1.80;99.90;;;;;;5027527;28;20037;-82
2021/03/03 05:08:19;;;;;;;15.60;6.50;;;1.80;99.90;;;;;;5004782;28;20049;-81
2021/03/03 05:10:44;;;;;;;11.10;5.78;;;1.80;99.90;;;;;;5023716;28;20034;-82
2021/03/03 05:13:15;;;;;;;19.05;8.15;;;1.80;99.90;;;;;;5027182;28;20041;-82
2021/03/03 05:15:40;;;;;;;18.15;7.15;;;2.10;99.90;;;;;;5024450;28;20045;-81
2021/03/03 05:18:07;;;;;;;15.43;7.20;;;1.90;99.90;;;;;;5021718;28;20051;-81
2021/03/03 05:20:33;;;;;;;16.98;7.32;;;1.80;99.90;;;;;;5026758;28;20029;-82
2021/03/03 05:22:58;;;;;;;14.90;6.40;;;2.00;99.90;;;;;;5010248;28;20034;-81
2021/03/03 05:25:24;;;;;;;16.75;7.28;;;1.90;99.90;;;;;;5011077;28;20044;-81
2021/03/03 05:27:50;;;;;;;14.15;6.78;;;1.90;99.90;;;;;;5026932;28;20057;-82
2021/03/03 05:30:16;;;;;;;17.58;7.75;;;1.80;99.90;;;;;;5027215;28;20040;-81
2021/03/03 05:32:42;;;;;;;16.05;7.45;;;2.10;99.90;;;;;;5019030;28;20034;-82
2021/03/03 05:35:08;;;;;;;14.63;7.10;;;2.20;99.90;;;;;;4996263;28;20041;-81
2021/03/03 05:37:33;;;;;;;14.23;6.70;;;2.10;99.90;;;;;;5027844;28;20132;-81
2021/03/03 05:39:59;;;;;;;15.07;7.93;;;2.00;99.90;;;;;;5011823;28;20057;-81
2021/03/03 05:42:25;;;;;;;18.48;7.40;;;2.10;99.90;;;;;;5019224;28;20057;-81
2021/03/03 05:44:56;;;;;;;15.65;7.05;;;2.20;99.90;;;;;;5018998;28;20424;-81
2021/03/03 05:47:22;;;;;;;17.75;7.60;;;2.00;99.90;;;;;;4995865;28;20085;-82
2021/03/03 05:49:51;;;;;;;17.63;8.20;;;2.00;99.90;;;;;;5039061;28;20038;-81
2021/03/03 05:52:19;;;;;;;18.55;8.63;;;2.00;99.90;;;;;;4993827;28;20145;-81
2021/03/03 05:54:45;;;;;;;18.05;7.38;;;2.00;99.90;;;;;;5017801;28;20052;-82
2021/03/03 05:57:12;;;;;;;17.30;7.18;;;1.90;99.90;;;;;;5036100;28;20038;-82
2021/03/03 05:59:39;;;;;;;18.98;7.15;;;2.00;99.90;;;;;;4990607;28;20042;-82
2021/03/03 06:02:05;;;;;;;17.20;7.82;;;1.90;99.90;;;;;;5022919;28;20457;-81
2021/03/03 06:04:32;;;;;;;17.42;8.35;;;1.90;99.90;;;;;;5018181;28;20117;-82
2021/03/03 06:06:58;;;;;;;18.55;7.13;;;2.20;99.90;;;;;;4996688;28;20107;-82
2021/03/03 06:09:27;;;;;;;18.35;7.53;;;2.00;99.90;;;;;;5047150;28;20552;-82
2021/03/03 06:12:11;;;;;;;17.15;7.32;;;2.00;99.90;;;;;;5013897;28;20044;-82
2021/03/03 06:14:39;;;;;;;14.00;7.20;;;1.90;99.90;;;;;;5038242;28;20041;-81
2021/03/03 06:17:05;;;;;;;17.60;8.68;;;2.00;99.90;;;;;;5032777;28;20054;-82
2021/03/03 06:19:31;;;;;;;16.88;7.55;;;1.90;99.90;;;;;;5027478;28;20062;-82
2021/03/03 06:21:56;;;;;;;18.88;7.55;;;1.90;99.90;;;;;;5025600;28;20037;-82
2021/03/03 06:24:33;;;;;;;17.05;6.63;;;1.90;99.90;;;;;;5029027;28;20040;-82
2021/03/03 06:27:00;;;;;;;15.00;7.15;;;2.00;99.90;;;;;;5028813;28;20025;-82
2021/03/03 06:29:26;;;;;;;18.75;8.20;;;2.00;99.90;;;;;;5028504;28;20120;-82
2021/03/03 06:31:52;;;;;;;18.85;7.57;;;2.10;99.90;;;;;;5028801;28;20041;-82
2021/03/03 06:34:23;;;;;;;16.83;6.95;;;2.10;99.90;;;;;;5028983;28;20093;-82
2021/03/03 06:36:55;;;;;;;15.85;7.32;;;2.10;99.90;;;;;;5027429;28;20065;-82
2021/03/03 06:39:29;;;;;;;17.13;8.05;;;2.30;99.90;;;;;;5035781;28;20099;-82
2021/03/03 06:42:00;;;;;;;17.23;7.65;;;2.20;99.90;;;;;;5018406;28;20175;-82
2021/03/03 06:44:44;;;;;;;17.15;7.80;;;2.30;99.90;;;;;;5007280;28;20064;-81
2021/03/03 06:47:09;;;;;;;18.20;7.68;;;2.50;99.90;;;;;;5026977;28;20081;-81
2021/03/03 06:49:35;;;;;;;16.10;8.00;;;2.40;99.90;;;;;;5029150;28;20041;-81
2021/03/03 06:52:01;;;;;;;19.70;8.35;;;2.40;99.90;;;;;;5026586;28;20103;-83
2021/03/03 06:54:27;;;;;;;17.98;7.32;;;2.50;99.90;;;;;;5024733;28;20041;-83
2021/03/03 06:56:54;;;;;;;15.65;8.25;;;2.60;99.90;;;;;;5030540;28;20053;-83
2021/03/03 06:59:30;;;;;;;17.45;8.43;;;2.50;99.90;;;;;;5024720;28;20049;-82
2021/03/03 07:01:58;;;;;;;19.67;8.63;;;2.70;99.90;;;;;;5014435;28;20121;-83
2021/03/03 07:04:33;;;;;;;15.88;8.20;;;2.80;99.90;;;;;;5012593;28;20033;-82
2021/03/03 07:07:10;;;;;;;16.73;7.18;;;2.70;99.90;;;;;;5015669;28;20041;-83
2021/03/03 07:09:49;;;;;;;18.15;8.00;;;2.80;99.90;;;;;;5009410;28;20045;-83
2021/03/03 07:12:19;;;;;;;18.75;9.23;;;3.00;99.90;;;;;;5033869;28;20052;-83
2021/03/03 07:15:02;;;;;;;19.55;8.52;;;3.10;99.90;;;;;;5038011;28;20068;-82
2021/03/03 07:17:45;;;;;;;18.77;9.25;;;3.30;99.90;;;;;;5005689;28;20075;-82
2021/03/03 07:20:16;;;;;;;18.10;9.20;;;3.30;99.90;;;;;;5024452;28;20041;-82
2021/03/03 07:22:51;;;;;;;18.38;8.40;;;3.50;99.90;;;;;;5013130;28;20113;-83
2021/03/03 07:25:19;;;;;;;18.25;8.20;;;3.50;99.90;;;;;;5023798;28;20109;-83
2021/03/03 07:27:48;;;;;;;22.15;8.63;;;3.60;99.90;;;;;;5026778;28;20050;-82
2021/03/03 07:30:16;;;;;;;18.35;8.95;;;3.70;99.90;;;;;;5032559;28;20465;-83
2021/03/03 07:32:42;;;;;;;18.92;8.90;;;3.80;99.90;;;;;;5027036;28;20033;-83
2021/03/03 07:35:09;;;;;;;19.52;9.55;;;3.90;99.90;;;;;;5043644;28;20133;-83
2021/03/03 07:37:48;;;;;;;18.25;8.77;;;4.10;99.90;;;;;;5030408;28;20060;-83
2021/03/03 07:40:15;;;;;;;20.33;9.98;;;4.30;99.90;;;;;;5043393;28;20052;-83
2021/03/03 07:42:50;;;;;;;20.48;8.70;;;4.50;99.90;;;;;;5026774;28;20080;-83
2021/03/03 07:45:17;;;;;;;21.02;9.50;;;4.70;99.90;;;;;;5043345;28;20033;-83
2021/03/03 07:47:43;;;;;;;22.85;10.68;;;4.80;99.90;;;;;;5032208;28;20037;-83
2021/03/03 07:50:12;;;;;;;18.33;9.57;;;5.00;99.90;;;;;;5027056;28;20511;-83
2021/03/03 07:52:41;;;;;;;22.02;9.38;;;5.20;99.90;;;;;;5043331;28;20033;-83
2021/03/03 07:55:08;;;;;;;19.98;10.40;;;5.30;99.90;;;;;;5026512;28;20047;-83
2021/03/03 07:57:35;;;;;;;20.83;10.13;;;5.40;99.90;;;;;;5010241;28;20393;-83
2021/03/03 08:00:09;;;;;;;22.83;10.05;;;5.40;99.90;;;;;;5029387;28;20029;-83
2021/03/03 08:02:45;;;;;;;20.17;9.82;;;5.50;99.90;;;;;;5023414;28;20041;-83
2021/03/03 08:08:28;;;;;;;18.48;10.40;;;5.70;99.90;;;;;;4935649;29;20118;-83
2021/03/03 08:10:59;;;;;;;20.33;10.05;;;5.90;99.90;;;;;;4932481;29;20050;-83
2021/03/03 08:13:28;;;;;;;20.92;11.48;;;6.00;99.90;;;;;;4921064;29;20049;-83
2021/03/03 08:15:58;;;;;;;18.88;10.88;;;6.20;99.90;;;;;;4931776;29;20067;-83
2021/03/03 08:18:30;;;;;;;20.35;10.48;;;6.30;99.90;;;;;;4927797;29;20118;-83
2021/03/03 08:20:57;;;;;;;24.30;12.32;;;6.40;99.90;;;;;;4934129;29;20103;-84
2021/03/03 08:23:35;;;;;;;23.38;11.68;;;6.50;99.90;;;;;;4931782;29;20099;-83
2021/03/03 08:26:16;;;;;;;25.23;11.73;;;6.50;99.90;;;;;;4931767;29;20047;-84
2021/03/03 08:28:43;;;;;;;26.67;11.98;;;6.50;99.90;;;;;;4949292;29;20040;-83
2021/03/03 08:31:09;;;;;;;19.85;11.63;;;6.60;99.90;;;;;;4915426;29;20517;-83
2021/03/03 08:33:41;;;;;;;25.45;12.80;;;6.60;99.90;;;;;;4933839;28;20043;-83
2021/03/03 08:36:11;;;;;;;22.67;12.80;;;6.70;99.90;;;;;;4920911;29;20557;-83
2021/03/03 08:38:37;;;;;;;25.42;12.65;;;6.80;99.90;;;;;;4942610;29;20163;-83
2021/03/03 08:41:14;;;;;;;22.33;12.35;;;6.80;99.90;;;;;;4942910;29;20463;-84
2021/03/03 08:43:47;;;;;;;22.63;11.98;;;7.00;99.90;;;;;;4930631;29;20054;-83
2021/03/03 08:46:19;;;;;;;27.70;13.43;;;7.00;99.90;;;;;;5017813;28;20033;-83
2021/03/03 08:48:57;;;;;;;29.60;14.10;;;7.10;99.90;;;;;;5013928;28;20038;-83
2021/03/03 08:51:31;;;;;;;23.10;12.85;;;7.20;99.90;;;;;;5061876;28;20125;-83
2021/03/03 08:53:59;;;;;;;23.30;13.98;;;7.20;99.90;;;;;;5010701;28;20034;-84
2021/03/03 08:56:44;;;;;;;23.77;13.32;;;7.30;99.90;;;;;;5029797;28;20046;-84
2021/03/03 08:59:28;;;;;;;25.15;12.93;;;7.40;99.90;;;;;;5045114;28;20051;-84
2021/03/03 09:02:18;;;;;;;24.48;13.50;;;7.40;99.90;;;;;;5028185;28;20033;-84
2021/03/03 09:04:46;;;;;;;30.20;14.30;;;7.40;99.90;;;;;;5013011;28;20056;-84
2021/03/03 09:07:24;;;;;;;25.15;14.18;;;7.50;99.90;;;;;;5012421;23;20130;-84
2021/03/03 09:09:55;;;;;;;27.13;14.13;;;7.60;99.90;;;;;;5012243;28;20473;-84
2021/03/03 09:12:24;;;;;;;28.48;16.58;;;7.80;99.90;;;;;;4996092;28;20041;-83
2021/03/03 09:14:52;;;;;;;29.35;16.98;;;7.90;99.90;;;;;;4994531;28;20034;-83
2021/03/03 09:17:24;;;;;;;37.78;21.13;;;8.10;99.90;;;;;;4997887;28;20043;-84
2021/03/03 09:19:50;;;;;;;35.95;19.33;;;8.30;99.90;;;;;;4988261;28;20042;-85
2021/03/03 09:22:21;;;;;;;37.83;21.38;;;8.60;99.90;;;;;;4992424;28;20046;-83
2021/03/03 09:24:48;;;;;;;33.78;19.27;;;8.80;99.90;;;;;;4982148;28;20043;-84
2021/03/03 09:27:14;;;;;;;37.75;21.58;;;8.80;99.90;;;;;;5008946;28;20030;-84
2021/03/03 09:29:40;;;;;;;37.05;22.27;;;8.90;99.90;;;;;;4977696;28;20758;-83
2021/03/03 09:32:16;;;;;;;39.40;22.40;;;9.10;99.90;;;;;;5006393;28;20049;-84
2021/03/03 09:34:54;;;;;;;39.75;21.85;;;9.10;99.90;;;;;;4997214;28;20038;-84
2021/03/03 09:37:22;;;;;;;41.08;24.80;;;9.20;99.90;;;;;;5004690;28;20141;-84
2021/03/03 09:39:52;;;;;;;37.67;22.60;;;9.30;99.90;;;;;;4996105;28;20034;-83
2021/03/03 09:42:17;;;;;;;44.10;25.42;;;9.40;99.90;;;;;;4995440;28;20049;-83
2021/03/03 09:45:01;;;;;;;39.65;23.48;;;9.50;99.90;;;;;;4995949;28;20022;-84
2021/03/03 09:47:36;;;;;;;37.90;23.20;;;9.60;99.90;;;;;;4995774;28;20038;-84
2021/03/03 09:50:09;;;;;;;37.92;22.00;;;9.60;99.90;;;;;;4994672;28;20046;-84
2021/03/03 09:52:41;;;;;;;31.63;20.63;;;9.90;99.90;;;;;;4990407;28;20105;-84
2021/03/03 09:55:14;;;;;;;30.50;19.70;;;9.90;99.90;;;;;;4993280;28;20106;-84
2021/03/03 09:57:42;;;;;;;41.47;22.52;;;9.90;99.90;;;;;;4995294;28;20070;-84
2021/03/03 10:00:11;;;;;;;34.63;20.52;;;9.90;99.90;;;;;;4990814;28;20062;-84
2021/03/03 10:03:07;;;;;;;34.30;21.35;;;9.90;99.90;;;;;;4992736;28;20035;-84
2021/03/03 10:05:54;;;;;;;40.63;23.40;;;9.80;99.90;;;;;;4977417;28;20064;-83
2021/03/03 10:08:20;;;;;;;38.15;22.27;;;9.90;99.90;;;;;;4957719;28;20054;-84
2021/03/03 10:10:47;;;;;;;37.40;22.52;;;9.90;99.90;;;;;;4960497;28;20043;-84
2021/03/03 10:13:20;;;;;;;35.83;21.13;;;10.10;99.90;;;;;;4949605;28;20063;-84
2021/03/03 10:15:46;;;;;;;30.73;20.33;;;10.20;99.90;;;;;;4959419;28;20043;-84
2021/03/03 10:18:12;;;;;;;36.13;21.40;;;10.50;99.90;;;;;;4958881;28;20092;-84
2021/03/03 10:20:40;;;;;;;36.65;21.75;;;10.40;99.90;;;;;;4954082;29;20478;-83
2021/03/03 10:23:15;;;;;;;34.47;20.83;;;10.50;99.90;;;;;;4954253;28;20105;-84
2021/03/03 10:25:45;;;;;;;36.55;20.27;;;10.70;99.90;;;;;;4950814;28;20041;-84
2021/03/03 10:28:21;;;;;;;33.63;21.52;;;11.00;99.90;;;;;;4949929;28;20090;-84
2021/03/03 10:30:55;;;;;;;33.15;17.80;;;11.20;99.90;;;;;;4945744;29;20047;-83
2021/03/03 10:33:31;;;;;;;41.88;25.63;;;11.30;99.90;;;;;;4957165;28;20126;-84
2021/03/03 10:35:59;;;;;;;43.45;24.80;;;11.30;99.90;;;;;;4956274;28;20103;-84
2021/03/03 10:38:25;;;;;;;40.00;24.23;;;11.40;99.90;;;;;;4954109;28;20099;-84
2021/03/03 10:40:53;;;;;;;39.33;24.38;;;11.30;99.90;;;;;;4928534;29;20039;-84
2021/03/03 10:43:21;;;;;;;36.47;22.30;;;11.20;99.90;;;;;;4947707;28;20054;-84
2021/03/03 10:45:48;;;;;;;39.88;21.60;;;11.30;99.90;;;;;;4965142;28;20034;-84
2021/03/03 10:48:30;;;;;;;41.30;26.63;;;11.40;99.90;;;;;;4996030;28;20153;-84
2021/03/03 10:51:01;;;;;;;43.78;27.02;;;11.40;99.90;;;;;;4990606;28;20499;-84
2021/03/03 10:53:45;;;;;;;38.10;25.90;;;11.40;99.90;;;;;;4994086;28;20058;-84
2021/03/03 10:56:23;;;;;;;47.45;28.48;;;11.50;99.90;;;;;;5009651;28;20061;-84
2021/03/03 10:58:48;;;;;;;41.90;26.52;;;11.40;99.90;;;;;;4987974;28;20050;-84
2021/03/03 11:01:18;;;;;;;45.22;28.63;;;11.50;99.90;;;;;;4985885;28;20402;-84
2021/03/03 11:03:55;;;;;;;47.80;29.45;;;11.40;99.90;;;;;;4992629;28;20580;-84
2021/03/03 11:06:22;;;;;;;51.70;30.98;;;11.40;99.90;;;;;;4992936;28;20030;-85
2021/03/03 11:08:48;;;;;;;48.45;28.65;;;11.50;99.90;;;;;;4987195;28;20406;-84
2021/03/03 11:11:14;;;;;;;50.25;31.98;;;11.70;99.90;;;;;;5015334;28;20057;-85
2021/03/03 11:13:40;;;;;;;47.13;31.25;;;11.70;99.90;;;;;;5004606;28;20482;-84
2021/03/03 11:16:06;;;;;;;47.42;30.00;;;11.90;99.90;;;;;;4990584;28;20075;-83
2021/03/03 11:18:32;;;;;;;47.22;28.15;;;12.10;99.90;;;;;;4985960;28;20069;-84
2021/03/03 11:20:58;;;;;;;48.03;31.55;;;12.20;99.90;;;;;;5005184;28;20041;-84
2021/03/03 11:23:24;;;;;;;53.90;30.27;;;12.40;99.90;;;;;;5006420;28;20034;-84
2021/03/03 11:25:50;;;;;;;48.75;32.08;;;12.50;99.90;;;;;;5002837;28;20039;-85
2021/03/03 11:28:16;;;;;;;49.22;31.30;;;12.50;99.90;;;;;;4987531;28;20125;-85
2021/03/03 11:30:42;;;;;;;56.47;34.33;;;12.60;99.90;;;;;;5004906;28;20128;-84
2021/03/03 11:33:07;;;;;;;52.38;33.75;;;12.50;99.90;;;;;;4988594;28;20537;-84
2021/03/03 11:35:33;;;;;;;52.47;34.42;;;12.60;99.90;;;;;;5006567;28;20044;-84
2021/03/03 11:37:59;;;;;;;60.25;38.00;;;12.50;99.90;;;;;;5006363;28;20395;-84
2021/03/03 11:40:25;;;;;;;58.92;38.00;;;12.20;99.90;;;;;;4987974;28;20084;-84
2021/03/03 11:42:51;;;;;;;57.53;35.97;;;12.30;99.90;;;;;;4988124;28;20102;-85
2021/03/03 11:45:17;;;;;;;50.40;32.97;;;12.40;99.90;;;;;;4988417;28;20044;-84
2021/03/03 11:47:43;;;;;;;53.22;34.55;;;12.70;99.90;;;;;;5006763;28;20038;-84
2021/03/03 11:50:10;;;;;;;54.78;33.83;;;12.70;99.90;;;;;;5004200;28;20027;-84
2021/03/03 11:52:35;;;;;;;56.47;36.67;;;12.80;99.90;;;;;;5003233;28;20057;-85
2021/03/03 11:55:01;;;;;;;54.50;35.75;;;12.80;99.90;;;;;;5003714;28;20721;-87
2021/03/03 11:57:27;;;;;;;53.65;33.50;;;13.00;99.90;;;;;;5009281;28;20050;-84
2021/03/03 11:59:53;;;;;;;57.97;34.92;;;12.90;99.90;;;;;;5003378;28;20040;-84
2021/03/03 12:02:18;;;;;;;55.85;35.60;;;13.10;99.90;;;;;;5003006;28;20030;-85
2021/03/03 12:04:44;;;;;;;54.40;32.95;;;13.10;99.90;;;;;;5006684;28;20474;-85
2021/03/03 12:07:10;;;;;;;60.95;37.85;;;13.20;99.90;;;;;;5031518;23;20156;-85
2021/03/03 12:09:37;;;;;;;55.65;33.30;;;13.30;99.90;;;;;;5089039;28;20049;-84
2021/03/03 12:12:03;;;;;;;59.88;37.47;;;13.20;99.90;;;;;;5058599;28;20035;-85
2021/03/03 12:14:28;;;;;;;57.25;37.28;;;13.20;99.90;;;;;;5057947;28;20059;-84
2021/03/03 12:16:54;;;;;;;65.50;40.90;;;13.20;99.90;;;;;;5053052;28;20136;-84
2021/03/03 12:19:20;;;;;;;65.70;42.00;;;13.10;99.90;;;;;;5069934;28;20107;-85
2021/03/03 12:21:45;;;;;;;64.20;40.67;;;12.90;99.90;;;;;;5087413;28;20075;-85
2021/03/03 12:24:11;;;;;;;64.68;38.80;;;12.90;99.90;;;;;;5053249;28;20029;-85
2021/03/03 12:26:37;;;;;;;57.15;36.67;;;12.90;99.90;;;;;;5057124;28;20063;-85
2021/03/03 12:29:03;;;;;;;62.13;39.25;;;13.10;99.90;;;;;;5063181;28;20534;-85
2021/03/03 12:31:29;;;;;;;61.30;36.05;;;13.00;99.90;;;;;;5071786;28;20033;-85
2021/03/03 12:33:55;;;;;;;57.30;34.88;;;12.90;99.90;;;;;;5058743;28;20051;-84
2021/03/03 12:36:20;;;;;;;70.10;41.22;;;12.80;99.90;;;;;;5057839;28;20032;-84
2021/03/03 12:38:46;;;;;;;63.72;40.95;;;12.70;99.90;;;;;;5056242;28;20147;-84
2021/03/03 12:41:12;;;;;;;62.40;40.03;;;12.60;99.90;;;;;;5042608;28;20032;-86
2021/03/03 12:43:37;;;;;;;63.55;41.53;;;12.80;99.90;;;;;;5048887;28;20049;-86
2021/03/03 12:46:03;;;;;;;64.35;40.25;;;12.90;99.90;;;;;;5046654;28;20069;-84
2021/03/03 12:48:28;;;;;;;71.13;42.40;;;13.20;99.90;;;;;;5072790;28;20060;-86
2021/03/03 12:50:54;;;;;;;65.82;40.33;;;13.40;99.90;;;;;;5069379;28;20036;-83